Astra 1 — T8A2557 — position and weather

sailwx.info

Track history (hours):
 
Tides and Currents Weather Stations Pressure Air Temp Water Temp Dewpoint Dewpoint Depression Visibility Wind Speed Wind Dir Waves Ship Positions

Astra 1

Last reported at 2017-Oct-18 16:53 UTC. Time now 2017-Oct-19 21:56 UTC.
Position N 45°30' E 036°44'.

Length 107 m; draft 2.7 m.

Type: Cargo ship. MMSI: 511421000.

Date/timePositionNaut miles runAvg speedWind from/ knotsBaromVisibWave heightAir tempDewpointWater temp
2017-Oct-18 16:53N 45°30' E 036°44'3 7.9
2017-Oct-18 16:30N 45°27' E 036°42'4 8.1
2017-Oct-18 16:00N 45°23' E 036°41'3 6.7
2017-Oct-18 15:30N 45°20' E 036°38'4 7.3
2017-Oct-18 15:00N 45°19' E 036°33'5 5.4
2017-Oct-18 14:00N 45°15' E 036°29'1 2.7
2017-Oct-18 13:29N 45°14' E 036°30'0 0.3
2017-Oct-18 12:59N 45°14' E 036°30'0 0.0
2017-Oct-18 12:26N 45°14' E 036°30'0 0.2
2017-Oct-18 12:00N 45°14' E 036°30'3 5.3
2017-Oct-18 11:30N 45°11' E 036°29'  
Track history (hours):
 
Tides and Currents Weather Stations Pressure Air Temp Water Temp Dewpoint Dewpoint Depression Visibility Wind Speed Wind Dir Waves Ship Positions

Astra 1

Last reported at 2017-Oct-18 16:53 UTC. Time now 2017-Oct-19 21:56 UTC.
Position N 45°30' E 036°44'.

Length 107 m; draft 2.7 m.

Type: Cargo ship. MMSI: 511421000.

Date/timePositionNaut miles runAvg speedWind from/ knotsBaromVisibWave heightAir tempDewpointWater temp
2017-Oct-18 16:53N 45°30' E 036°44'3 7.9
2017-Oct-18 16:30N 45°27' E 036°42'4 8.1
2017-Oct-18 16:00N 45°23' E 036°41'3 6.7
2017-Oct-18 15:30N 45°20' E 036°38'4 7.3
2017-Oct-18 15:00N 45°19' E 036°33'5 5.4
2017-Oct-18 14:00N 45°15' E 036°29'1 2.7
2017-Oct-18 13:29N 45°14' E 036°30'0 0.3
2017-Oct-18 12:59N 45°14' E 036°30'0 0.0
2017-Oct-18 12:26N 45°14' E 036°30'0 0.2
2017-Oct-18 12:00N 45°14' E 036°30'3 5.3
2017-Oct-18 11:30N 45°11' E 036°29'  

Dump ship's entire track history